createdAt,value
2017-08-18T00:00:05.005Z,0
2017-08-18T00:01:15.275Z,0
2017-08-18T00:02:24.917Z,0
2017-08-18T00:03:34.910Z,0
2017-08-18T00:04:45.184Z,0
2017-08-18T00:05:55.455Z,0
2017-08-18T00:07:05.736Z,0
2017-08-18T00:08:16.009Z,0
2017-08-18T00:09:25.653Z,0
2017-08-18T00:10:35.300Z,0
2017-08-18T00:11:45.255Z,0
2017-08-18T00:12:55.532Z,0
2017-08-18T00:14:05.808Z,0
2017-08-18T00:15:16.084Z,0
2017-08-18T00:16:26.044Z,0
2017-08-18T00:17:36.315Z,0
2017-08-18T00:18:46.590Z,0
2017-08-18T00:19:56.861Z,0
2017-08-18T00:21:06.821Z,0
2017-08-18T00:22:17.091Z,0
2017-08-18T00:23:27.048Z,0
2017-08-18T00:24:37.002Z,0
2017-08-18T00:25:46.963Z,0
2017-08-18T00:26:57.236Z,0
2017-08-18T00:28:07.524Z,0
2017-08-18T00:29:17.478Z,0
2017-08-18T00:30:27.122Z,0
2017-08-18T00:31:37.407Z,0
2017-08-18T00:32:47.684Z,0
2017-08-18T00:33:57.642Z,0
2017-08-18T00:35:07.916Z,0
2017-08-18T00:36:17.567Z,0
2017-08-18T00:37:27.843Z,0
2017-08-18T00:38:38.130Z,0
2017-08-18T00:39:48.399Z,0
2017-08-18T00:40:58.672Z,0
2017-08-18T00:42:08.950Z,0
2017-08-18T00:43:18.909Z,0
2017-08-18T00:44:29.184Z,0
2017-08-18T00:45:39.455Z,0
2017-08-18T00:46:49.732Z,0
2017-08-18T00:47:59.380Z,0
2017-08-18T00:49:09.649Z,0
2017-08-18T00:50:19.298Z,0
2017-08-18T00:51:28.944Z,0
2017-08-18T00:52:38.906Z,0
2017-08-18T00:53:49.181Z,0
2017-08-18T00:54:59.147Z,0
2017-08-18T00:56:09.426Z,0
2017-08-18T00:57:19.696Z,0
2017-08-18T00:58:29.673Z,0
2017-08-18T00:59:39.630Z,0
2017-08-18T01:00:49.591Z,0
2017-08-18T01:01:59.546Z,0
2017-08-18T01:03:09.510Z,0
2017-08-18T01:04:19.786Z,0
2017-08-18T01:05:30.063Z,0
2017-08-18T01:06:40.022Z,0
2017-08-18T01:07:50.291Z,0
2017-08-18T01:09:00.558Z,0
2017-08-18T01:10:10.899Z,0
2017-08-18T01:11:20.860Z,0
2017-08-18T01:12:31.139Z,0
2017-08-18T01:13:41.100Z,0
2017-08-18T01:14:51.380Z,0
2017-08-18T01:16:01.653Z,0
2017-08-18T01:17:11.928Z,0
2017-08-18T01:18:21.883Z,0
2017-08-18T01:19:31.837Z,0
2017-08-18T01:20:41.795Z,0
2017-08-18T01:21:51.752Z,0
2017-08-18T01:23:01.407Z,0
2017-08-18T01:24:11.680Z,0
2017-08-18T01:25:21.640Z,0
2017-08-18T01:26:30.974Z,0
2017-08-18T01:27:41.246Z,0
2017-08-18T01:28:51.521Z,0
2017-08-18T01:30:01.484Z,0
2017-08-18T01:31:11.765Z,0
2017-08-18T01:32:21.406Z,0
2017-08-18T01:33:31.678Z,0
2017-08-18T01:34:41.949Z,0
2017-08-18T01:35:52.220Z,0
2017-08-18T01:37:02.489Z,0
2017-08-18T01:38:12.762Z,0
2017-08-18T01:39:23.034Z,0
2017-08-18T01:40:32.994Z,0
2017-08-18T01:41:43.266Z,0
2017-08-18T01:42:53.541Z,0
2017-08-18T01:44:03.496Z,0
2017-08-18T01:45:13.453Z,0
2017-08-18T01:46:23.411Z,0
2017-08-18T01:47:33.685Z,0
2017-08-18T01:48:43.953Z,0
2017-08-18T01:49:54.225Z,0
2017-08-18T01:51:04.285Z,0
2017-08-18T01:52:14.556Z,0
2017-08-18T01:53:24.517Z,0
2017-08-18T01:54:34.791Z,0
2017-08-18T01:55:45.062Z,0
2017-08-18T01:56:55.021Z,0
2017-08-18T01:58:05.295Z,0
2017-08-18T01:59:15.250Z,0
2017-08-18T02:00:25.212Z,0
2017-08-18T02:01:35.167Z,0
2017-08-18T02:02:45.137Z,0
2017-08-18T02:03:55.455Z,0
2017-08-18T02:05:05.413Z,0
2017-08-18T02:06:15.687Z,0
2017-08-18T02:07:25.992Z,0
2017-08-18T02:08:35.947Z,0
2017-08-18T02:09:46.217Z,0
2017-08-18T02:10:56.172Z,0
2017-08-18T02:12:06.129Z,0
2017-08-18T02:13:16.415Z,0
2017-08-18T02:14:26.374Z,0
2017-08-18T02:15:36.644Z,0
2017-08-18T02:16:46.603Z,0
2017-08-18T02:17:56.871Z,0
2017-08-18T02:19:07.145Z,0
2017-08-18T02:20:17.422Z,0
2017-08-18T02:21:27.380Z,0
2017-08-18T02:22:37.656Z,0
2017-08-18T02:23:47.928Z,0
2017-08-18T02:24:58.206Z,0
2017-08-18T02:26:08.165Z,0
2017-08-18T02:27:18.438Z,0
2017-08-18T02:28:28.392Z,0
2017-08-18T02:29:38.666Z,0
2017-08-18T02:30:48.939Z,0
2017-08-18T02:31:59.212Z,0
2017-08-18T02:33:09.486Z,0
2017-08-18T02:34:19.130Z,0
2017-08-18T02:35:29.406Z,0
2017-08-18T02:36:39.679Z,0
2017-08-18T02:37:49.975Z,0
2017-08-18T02:39:00.312Z,0
2017-08-18T02:40:09.957Z,0
2017-08-18T02:41:19.942Z,0
2017-08-18T02:42:30.240Z,0
2017-08-18T02:43:40.208Z,0
2017-08-18T02:44:50.481Z,0
2017-08-18T02:46:00.791Z,0
2017-08-18T02:47:10.437Z,0
2017-08-18T02:48:20.401Z,0
2017-08-18T02:49:30.359Z,0
2017-08-18T02:50:40.328Z,0
2017-08-18T02:51:49.984Z,0
2017-08-18T02:53:00.256Z,0
2017-08-18T02:54:09.893Z,0
2017-08-18T02:55:19.234Z,0
2017-08-18T02:56:29.527Z,0
2017-08-18T02:57:39.482Z,0
2017-08-18T02:58:49.754Z,0
2017-08-18T02:59:59.713Z,0
2017-08-18T03:01:09.670Z,0
2017-08-18T03:02:19.625Z,0
2017-08-18T03:03:29.582Z,0
2017-08-18T03:04:39.854Z,0
2017-08-18T03:05:50.126Z,0
2017-08-18T03:07:00.399Z,0
2017-08-18T03:08:10.041Z,0
2017-08-18T03:09:20.313Z,0
2017-08-18T03:10:30.271Z,0
2017-08-18T03:11:40.230Z,0
2017-08-18T03:12:50.499Z,0
2017-08-18T03:14:00.772Z,0
2017-08-18T03:15:10.109Z,0
2017-08-18T03:16:20.067Z,0
2017-08-18T03:17:30.023Z,0
2017-08-18T03:18:40.293Z,0
2017-08-18T03:19:50.254Z,0
2017-08-18T03:21:00.525Z,0
2017-08-18T03:22:10.494Z,0
2017-08-18T03:23:20.458Z,0
2017-08-18T03:24:30.412Z,0
2017-08-18T03:25:40.373Z,0
2017-08-18T03:26:50.341Z,0
2017-08-18T03:28:00.615Z,0
2017-08-18T03:29:10.887Z,0
2017-08-18T03:30:21.174Z,0
2017-08-18T03:31:31.132Z,0
2017-08-18T03:32:41.402Z,0
2017-08-18T03:33:51.671Z,0
2017-08-18T03:35:01.940Z,0
2017-08-18T03:36:11.585Z,0
2017-08-18T03:37:21.856Z,0
2017-08-18T03:38:32.126Z,0
2017-08-18T03:39:42.398Z,0
2017-08-18T03:40:52.670Z,0
2017-08-18T03:42:02.940Z,0
2017-08-18T03:43:12.898Z,0
2017-08-18T03:44:22.864Z,0
2017-08-18T03:45:32.833Z,0
2017-08-18T03:46:43.103Z,0
2017-08-18T03:47:53.059Z,0
2017-08-18T03:49:03.331Z,0
2017-08-18T03:50:13.602Z,0
2017-08-18T03:51:23.562Z,0
2017-08-18T03:52:32.898Z,0
2017-08-18T03:53:43.177Z,0
2017-08-18T03:54:53.482Z,0
2017-08-18T03:56:03.759Z,0
2017-08-18T03:57:13.714Z,0
2017-08-18T03:58:23.670Z,0
2017-08-18T03:59:33.313Z,0
2017-08-18T04:00:42.962Z,0
2017-08-18T04:01:53.235Z,0
2017-08-18T04:03:03.506Z,0
2017-08-18T04:04:13.779Z,0
2017-08-18T04:05:23.744Z,0
2017-08-18T04:06:34.018Z,0
2017-08-18T04:07:44.290Z,0
2017-08-18T04:08:54.248Z,0
2017-08-18T04:10:04.208Z,0
2017-08-18T04:11:14.160Z,0
2017-08-18T04:12:24.123Z,0
2017-08-18T04:13:34.083Z,0
2017-08-18T04:14:44.049Z,0
2017-08-18T04:15:54.327Z,0
2017-08-18T04:17:04.618Z,0
2017-08-18T04:18:14.898Z,0
2017-08-18T04:19:25.167Z,0
2017-08-18T04:20:35.438Z,0
2017-08-18T04:21:45.078Z,0
2017-08-18T04:22:55.062Z,0
2017-08-18T04:24:05.333Z,0
2017-08-18T04:25:15.602Z,0
2017-08-18T04:26:25.558Z,0
2017-08-18T04:27:35.833Z,0
2017-08-18T04:28:46.103Z,0
2017-08-18T04:29:56.057Z,5
2017-08-18T04:31:06.352Z,5
2017-08-18T04:32:16.311Z,5
2017-08-18T04:33:26.267Z,5
2017-08-18T04:34:36.549Z,5
2017-08-18T04:35:46.825Z,5
2017-08-18T04:36:57.101Z,5
2017-08-18T04:38:07.060Z,5
2017-08-18T04:39:17.334Z,10
2017-08-18T04:40:27.604Z,10
2017-08-18T04:41:37.880Z,5
2017-08-18T04:42:48.152Z,10
2017-08-18T04:43:58.110Z,10
2017-08-18T04:45:08.388Z,10
2017-08-18T04:46:18.031Z,10
2017-08-18T04:47:27.988Z,10
2017-08-18T04:48:38.258Z,10
2017-08-18T04:49:48.548Z,10
2017-08-18T04:50:58.820Z,10
2017-08-18T04:52:08.461Z,15
2017-08-18T04:53:18.733Z,15
2017-08-18T04:54:28.387Z,10
2017-08-18T04:55:38.664Z,15
2017-08-18T04:56:48.628Z,15
2017-08-18T04:57:58.908Z,15
2017-08-18T04:59:09.184Z,15
2017-08-18T05:00:19.140Z,15
2017-08-18T05:01:29.410Z,10
2017-08-18T05:02:39.052Z,15
2017-08-18T05:03:49.329Z,15
2017-08-18T05:04:59.612Z,15
2017-08-18T05:06:09.884Z,15
2017-08-18T05:07:19.838Z,20
2017-08-18T05:08:29.798Z,20
2017-08-18T05:09:40.069Z,20
2017-08-18T05:10:50.032Z,20
2017-08-18T05:12:00.304Z,20
2017-08-18T05:13:10.584Z,20
2017-08-18T05:14:20.859Z,15
2017-08-18T05:15:30.513Z,20
2017-08-18T05:16:40.475Z,20
2017-08-18T05:17:50.746Z,20
2017-08-18T05:19:01.017Z,25
2017-08-18T05:20:11.295Z,25
2017-08-18T05:21:21.259Z,25
2017-08-18T05:22:31.531Z,20
2017-08-18T05:23:41.488Z,30
2017-08-18T05:24:51.759Z,35
2017-08-18T05:26:02.046Z,35
2017-08-18T05:27:12.318Z,35
2017-08-18T05:28:22.587Z,40
2017-08-18T05:29:32.862Z,40
2017-08-18T05:30:42.816Z,40
2017-08-18T05:31:52.774Z,40
2017-08-18T05:33:02.415Z,50
2017-08-18T05:34:12.693Z,50
2017-08-18T05:35:22.962Z,55
2017-08-18T05:36:32.921Z,55
2017-08-18T05:37:42.881Z,40
2017-08-18T05:38:52.532Z,45
2017-08-18T05:40:02.492Z,45
2017-08-18T05:41:12.449Z,45
2017-08-18T05:42:22.717Z,45
2017-08-18T05:43:32.047Z,50
2017-08-18T05:44:42.558Z,50
2017-08-18T05:45:52.837Z,55
2017-08-18T05:47:02.482Z,50
2017-08-18T05:48:12.449Z,40
2017-08-18T05:49:22.725Z,45
2017-08-18T05:50:32.998Z,45
2017-08-18T05:51:43.279Z,55
2017-08-18T05:52:53.546Z,55
2017-08-18T05:54:02.874Z,55
2017-08-18T05:55:12.515Z,45
2017-08-18T05:56:22.474Z,35
2017-08-18T05:57:32.432Z,40
2017-08-18T05:58:42.390Z,40
2017-08-18T05:59:52.662Z,40
2017-08-18T06:01:02.930Z,45
2017-08-18T06:02:12.893Z,40
2017-08-18T06:03:22.540Z,40
2017-08-18T06:04:32.498Z,45
2017-08-18T06:05:42.460Z,45
2017-08-18T06:06:52.736Z,40
2017-08-18T06:08:03.004Z,35
2017-08-18T06:09:12.657Z,40
2017-08-18T06:10:22.646Z,45
2017-08-18T06:11:32.934Z,45
2017-08-18T06:12:43.208Z,45
2017-08-18T06:13:53.477Z,45
2017-08-18T06:15:03.747Z,40
2017-08-18T06:16:13.706Z,50
2017-08-18T06:17:23.976Z,45
2017-08-18T06:18:33.626Z,45
2017-08-18T06:19:43.898Z,50
2017-08-18T06:20:54.170Z,45
2017-08-18T06:22:04.454Z,45
2017-08-18T06:23:14.729Z,45
2017-08-18T06:24:24.691Z,45
2017-08-18T06:25:34.657Z,45
2017-08-18T06:26:43.986Z,50
2017-08-18T06:27:54.264Z,60
2017-08-18T06:29:04.537Z,50
2017-08-18T06:30:14.812Z,60
2017-08-18T06:31:24.773Z,60
2017-08-18T06:32:34.730Z,60
2017-08-18T06:33:44.691Z,60
2017-08-18T06:34:54.967Z,60
2017-08-18T06:36:05.244Z,55
2017-08-18T06:37:15.203Z,65
2017-08-18T06:38:25.477Z,70
2017-08-18T06:39:35.750Z,60
2017-08-18T06:40:46.037Z,60
2017-08-18T06:41:55.992Z,55
2017-08-18T06:43:06.301Z,55
2017-08-18T06:44:16.575Z,55
2017-08-18T06:45:26.880Z,50
2017-08-18T06:46:36.841Z,60
2017-08-18T06:47:46.799Z,85
2017-08-18T06:48:57.070Z,75
2017-08-18T06:50:07.343Z,85
2017-08-18T06:51:17.306Z,95
2017-08-18T06:52:27.262Z,110
2017-08-18T06:53:37.533Z,100
2017-08-18T06:54:47.802Z,90
2017-08-18T06:55:57.771Z,100
2017-08-18T06:57:08.051Z,110
2017-08-18T06:58:18.323Z,120
2017-08-18T06:59:28.592Z,115
2017-08-18T07:00:38.863Z,140
2017-08-18T07:01:49.133Z,155
2017-08-18T07:02:59.094Z,160
2017-08-18T07:04:09.051Z,130
2017-08-18T07:05:18.381Z,125
2017-08-18T07:06:28.653Z,115
2017-08-18T07:07:38.926Z,140
2017-08-18T07:08:49.208Z,160
2017-08-18T07:09:59.492Z,155
2017-08-18T07:11:09.774Z,155
2017-08-18T07:12:20.046Z,145
2017-08-18T07:13:30.003Z,135
2017-08-18T07:14:40.275Z,135
2017-08-18T07:15:50.239Z,135
2017-08-18T07:17:00.515Z,160
2017-08-18T07:18:10.786Z,160
2017-08-18T07:19:20.436Z,170
2017-08-18T07:20:30.397Z,170
2017-08-18T07:21:40.666Z,160
2017-08-18T07:22:50.625Z,160
2017-08-18T07:24:02.898Z,170
2017-08-18T07:25:12.913Z,185
2017-08-18T07:26:23.184Z,175
2017-08-18T07:27:32.826Z,160
2017-08-18T07:28:43.108Z,145
2017-08-18T07:29:53.384Z,125
2017-08-18T07:31:03.659Z,120
2017-08-18T07:32:13.931Z,125
2017-08-18T07:33:23.572Z,140
2017-08-18T07:34:32.903Z,155
2017-08-18T07:35:45.326Z,180
2017-08-18T07:36:55.602Z,190
2017-08-18T07:38:05.878Z,205
2017-08-18T07:39:16.182Z,205
2017-08-18T07:40:26.456Z,185
2017-08-18T07:41:38.517Z,170
2017-08-18T07:42:48.795Z,170
2017-08-18T07:43:59.069Z,170
2017-08-18T07:45:09.347Z,170
2017-08-18T07:46:19.620Z,180
2017-08-18T07:47:29.893Z,165
2017-08-18T07:48:39.848Z,150
2017-08-18T07:49:49.804Z,140
2017-08-18T07:50:59.786Z,140
2017-08-18T07:52:10.060Z,150
2017-08-18T07:53:20.016Z,165
2017-08-18T07:54:29.976Z,175
2017-08-18T07:55:39.941Z,195
2017-08-18T07:56:50.212Z,195
2017-08-18T07:58:00.176Z,200
2017-08-18T07:59:10.139Z,195
2017-08-18T08:00:20.415Z,190
2017-08-18T08:01:30.088Z,175
2017-08-18T08:02:40.048Z,195
2017-08-18T08:03:50.006Z,180
2017-08-18T08:04:59.961Z,165
2017-08-18T08:06:09.928Z,155
2017-08-18T08:07:20.201Z,200
2017-08-18T08:08:29.860Z,180
2017-08-18T08:09:39.817Z,185
2017-08-18T08:10:49.461Z,230
2017-08-18T08:11:59.107Z,245
2017-08-18T08:13:09.383Z,225
2017-08-18T08:14:19.656Z,240
2017-08-18T08:15:29.634Z,215
2017-08-18T08:16:39.906Z,200
2017-08-18T08:17:50.181Z,180
2017-08-18T08:19:00.458Z,185
2017-08-18T08:20:10.420Z,185
2017-08-18T08:21:20.722Z,175
2017-08-18T08:22:30.361Z,165
2017-08-18T08:23:40.013Z,170
2017-08-18T08:24:49.978Z,175
2017-08-18T08:25:59.640Z,175
2017-08-18T08:27:09.914Z,170
2017-08-18T08:28:20.187Z,175
2017-08-18T08:29:30.465Z,205
2017-08-18T08:30:40.428Z,235
2017-08-18T08:31:50.385Z,230
2017-08-18T08:33:00.342Z,230
2017-08-18T08:34:10.311Z,260
2017-08-18T08:35:20.589Z,265
2017-08-18T08:36:30.859Z,280
2017-08-18T08:37:41.135Z,310
2017-08-18T08:38:51.411Z,345
2017-08-18T08:40:01.056Z,380
2017-08-18T08:41:11.015Z,435
2017-08-18T08:42:21.289Z,460
2017-08-18T08:43:30.934Z,425
2017-08-18T08:44:41.206Z,385
2017-08-18T08:45:51.173Z,370
2017-08-18T08:47:00.503Z,380
2017-08-18T08:48:10.148Z,425
2017-08-18T08:49:19.795Z,455
2017-08-18T08:50:30.083Z,465
2017-08-18T08:51:40.356Z,420
2017-08-18T08:52:50.637Z,425
2017-08-18T08:54:00.602Z,400
2017-08-18T08:55:10.608Z,380
2017-08-18T08:56:20.582Z,395
2017-08-18T08:57:30.545Z,410
2017-08-18T08:58:40.831Z,385
2017-08-18T08:59:50.483Z,385
2017-08-18T09:01:00.446Z,385
2017-08-18T09:02:10.096Z,380
2017-08-18T09:03:20.079Z,380
2017-08-18T09:04:30.374Z,360
2017-08-18T09:05:40.649Z,370
2017-08-18T09:06:50.930Z,345
2017-08-18T09:08:00.893Z,335
2017-08-18T09:09:11.169Z,305
2017-08-18T09:10:21.137Z,260
2017-08-18T09:11:30.789Z,265
2017-08-18T09:12:41.064Z,240
2017-08-18T09:13:51.031Z,225
2017-08-18T09:15:01.316Z,220
2017-08-18T09:16:11.283Z,225
2017-08-18T09:17:21.557Z,240
2017-08-18T09:18:31.202Z,245
2017-08-18T09:19:41.480Z,275
2017-08-18T09:20:51.756Z,220
2017-08-18T09:22:01.410Z,180
2017-08-18T09:23:11.375Z,175
2017-08-18T09:24:21.647Z,180
2017-08-18T09:25:31.610Z,155
2017-08-18T09:26:41.564Z,155
2017-08-18T09:27:51.523Z,165
2017-08-18T09:29:01.801Z,190
2017-08-18T09:30:12.077Z,220
2017-08-18T09:31:22.353Z,240
2017-08-18T09:32:32.318Z,255
2017-08-18T09:33:41.962Z,180
2017-08-18T09:34:51.927Z,170
2017-08-18T09:36:02.199Z,190
2017-08-18T09:37:12.476Z,190
2017-08-18T09:38:22.443Z,205
2017-08-18T09:39:32.719Z,225
2017-08-18T09:40:42.683Z,235
2017-08-18T09:41:52.963Z,260
2017-08-18T09:43:03.240Z,255
2017-08-18T09:44:12.889Z,240
2017-08-18T09:45:23.164Z,220
2017-08-18T09:46:33.123Z,210
2017-08-18T09:47:43.395Z,235
2017-08-18T09:48:53.671Z,285
2017-08-18T09:50:03.011Z,325
2017-08-18T09:51:13.290Z,300
2017-08-18T09:52:22.939Z,250
2017-08-18T09:53:33.219Z,210
2017-08-18T09:54:43.492Z,175
2017-08-18T09:55:53.766Z,175
2017-08-18T09:57:04.046Z,215
2017-08-18T09:58:14.032Z,230
2017-08-18T09:59:24.322Z,240
2017-08-18T10:00:34.281Z,240
2017-08-18T10:01:44.241Z,215
2017-08-18T10:02:54.207Z,235
2017-08-18T10:04:04.176Z,255
2017-08-18T10:05:14.477Z,260
2017-08-18T10:06:24.453Z,255
2017-08-18T10:07:34.736Z,260
2017-08-18T10:08:45.009Z,270
2017-08-18T10:09:55.286Z,270
2017-08-18T10:11:05.566Z,310
2017-08-18T10:12:15.531Z,335
2017-08-18T10:13:25.496Z,340
2017-08-18T10:14:34.828Z,335
2017-08-18T10:15:45.111Z,335
2017-08-18T10:16:55.389Z,295
2017-08-18T10:18:05.670Z,270
2017-08-18T10:19:15.945Z,250
2017-08-18T10:20:26.222Z,240
2017-08-18T10:21:36.181Z,250
2017-08-18T10:22:46.456Z,245
2017-08-18T10:23:56.737Z,250
2017-08-18T10:25:06.706Z,280
2017-08-18T10:26:16.668Z,235
2017-08-18T10:27:26.324Z,175
2017-08-18T10:28:36.284Z,135
2017-08-18T10:29:46.249Z,125
2017-08-18T10:30:56.214Z,125
2017-08-18T10:32:06.174Z,130
2017-08-18T10:33:15.825Z,130
2017-08-18T10:34:26.103Z,135
2017-08-18T10:35:36.061Z,160
2017-08-18T10:36:45.706Z,235
2017-08-18T10:37:55.669Z,375
2017-08-18T10:39:05.948Z,475
2017-08-18T10:40:16.223Z,560
2017-08-18T10:41:26.504Z,635
2017-08-18T10:42:36.466Z,920
2017-08-18T10:43:46.115Z,845
2017-08-18T10:44:56.076Z,675
2017-08-18T10:46:06.356Z,745
2017-08-18T10:47:16.639Z,800
2017-08-18T10:48:26.294Z,770
2017-08-18T10:49:35.949Z,1015
2017-08-18T10:50:45.282Z,730
2017-08-18T10:51:55.566Z,520
2017-08-18T10:53:05.532Z,525
2017-08-18T10:54:15.493Z,570
2017-08-18T10:55:25.457Z,820
2017-08-18T10:56:35.739Z,930
2017-08-18T10:57:46.025Z,750
2017-08-18T10:58:55.990Z,590
2017-08-18T11:00:06.297Z,505
2017-08-18T11:01:15.946Z,470
2017-08-18T11:02:26.226Z,460
2017-08-18T11:03:36.508Z,625
2017-08-18T11:04:46.787Z,725
2017-08-18T11:05:56.756Z,715
2017-08-18T11:07:07.065Z,830
2017-08-18T11:08:16.716Z,855
2017-08-18T11:09:26.365Z,600
2017-08-18T11:10:36.347Z,495
2017-08-18T11:11:46.639Z,365
2017-08-18T11:12:56.609Z,365
2017-08-18T11:14:06.576Z,420
2017-08-18T11:15:16.232Z,370
2017-08-18T11:16:26.518Z,405
2017-08-18T11:17:36.797Z,655
2017-08-18T11:18:47.086Z,760
2017-08-18T11:19:57.364Z,785
2017-08-18T11:21:07.640Z,535
2017-08-18T11:22:17.932Z,600
2017-08-18T11:23:27.906Z,505
2017-08-18T11:24:37.563Z,495
2017-08-18T11:25:47.845Z,1420
2017-08-18T11:26:58.123Z,1435
2017-08-18T11:28:07.460Z,615
2017-08-18T11:29:17.433Z,1245
2017-08-18T11:30:27.740Z,1700
2017-08-18T11:31:38.017Z,1905
2017-08-18T11:32:47.986Z,2875
2017-08-18T11:33:58.277Z,2730
2017-08-18T11:35:08.559Z,795
2017-08-18T11:36:18.526Z,855
2017-08-18T11:37:28.494Z,515
2017-08-18T11:38:38.778Z,515
2017-08-18T11:39:48.744Z,535
2017-08-18T11:40:59.030Z,565
2017-08-18T11:42:09.313Z,615
2017-08-18T11:43:18.648Z,525
2017-08-18T11:44:28.944Z,625
2017-08-18T11:45:38.949Z,705
2017-08-18T11:46:48.911Z,710
2017-08-18T11:47:59.207Z,720
2017-08-18T11:49:09.487Z,1175
2017-08-18T11:50:19.138Z,2890
2017-08-18T11:51:29.418Z,1220
2017-08-18T11:52:39.384Z,1940
2017-08-18T11:53:49.661Z,920
2017-08-18T11:54:59.940Z,1430
2017-08-18T11:56:10.219Z,2805
2017-08-18T11:57:20.512Z,2855
2017-08-18T11:58:30.477Z,2745
2017-08-18T11:59:40.149Z,2740
2017-08-18T12:00:49.802Z,2795
2017-08-18T12:02:00.083Z,470
2017-08-18T12:03:10.368Z,425
2017-08-18T12:04:20.649Z,470
2017-08-18T12:05:30.941Z,570
2017-08-18T12:06:40.597Z,760
2017-08-18T12:07:50.257Z,1725
2017-08-18T12:09:00.542Z,735
2017-08-18T12:10:10.822Z,580
2017-08-18T12:11:20.788Z,525
2017-08-18T12:12:30.755Z,505
2017-08-18T12:13:40.091Z,490
2017-08-18T12:14:50.092Z,550
2017-08-18T12:16:00.369Z,600
2017-08-18T12:17:10.020Z,635
2017-08-18T12:18:20.304Z,660
2017-08-18T12:19:30.587Z,655
2017-08-18T12:20:40.866Z,645
2017-08-18T12:21:50.830Z,650
2017-08-18T12:23:00.803Z,660
2017-08-18T12:24:10.776Z,765
2017-08-18T12:25:20.744Z,930
2017-08-18T12:26:31.027Z,945
2017-08-18T12:27:40.362Z,830
2017-08-18T12:28:50.322Z,1710
2017-08-18T12:29:59.976Z,1360
2017-08-18T12:31:09.957Z,905
2017-08-18T12:32:19.928Z,950
2017-08-18T12:33:29.891Z,1440
2017-08-18T12:34:39.856Z,995
2017-08-18T12:35:49.821Z,740
2017-08-18T12:36:59.788Z,730
2017-08-18T12:38:09.122Z,975
2017-08-18T12:39:19.089Z,1420
2017-08-18T12:40:29.368Z,725
2017-08-18T12:41:39.655Z,685
2017-08-18T12:42:49.940Z,670
2017-08-18T12:43:59.927Z,745
2017-08-18T12:45:09.574Z,905
2017-08-18T12:46:19.541Z,1080
2017-08-18T12:47:29.508Z,1145
2017-08-18T12:48:39.473Z,3175
2017-08-18T12:49:49.752Z,3265
2017-08-18T12:51:00.035Z,3075
2017-08-18T12:52:10.338Z,890
2017-08-18T12:53:20.622Z,1440
2017-08-18T12:54:30.928Z,1295
2017-08-18T12:55:40.894Z,3280
2017-08-18T12:56:51.185Z,3120
2017-08-18T12:58:01.461Z,2955
2017-08-18T12:59:11.114Z,2950
2017-08-18T13:00:21.392Z,2970
2017-08-18T13:01:31.363Z,3040
2017-08-18T13:02:41.021Z,3135
2017-08-18T13:03:51.313Z,3085
2017-08-18T13:05:01.609Z,3030
2017-08-18T13:06:11.577Z,3020
2017-08-18T13:07:21.553Z,3015
2017-08-18T13:08:31.529Z,2870
2017-08-18T13:09:41.821Z,2865
2017-08-18T13:10:51.476Z,2830
2017-08-18T13:12:01.764Z,3005
2017-08-18T13:13:12.047Z,3045
2017-08-18T13:14:22.331Z,2990
2017-08-18T13:15:32.631Z,2880
2017-08-18T13:16:42.600Z,2875
2017-08-18T13:17:52.885Z,3025
2017-08-18T13:19:03.169Z,3145
2017-08-18T13:20:13.143Z,3080
2017-08-18T13:21:22.493Z,3110
2017-08-18T13:22:32.467Z,3160
2017-08-18T13:23:42.440Z,1125
2017-08-18T13:24:52.405Z,855
2017-08-18T13:26:02.382Z,3045
2017-08-18T13:27:12.668Z,3115
2017-08-18T13:28:22.641Z,3000
2017-08-18T13:29:32.614Z,2935
2017-08-18T13:30:42.588Z,3080
2017-08-18T13:31:52.876Z,3065
2017-08-18T13:33:02.849Z,2850
2017-08-18T13:34:12.822Z,2735
2017-08-18T13:35:22.795Z,3120
2017-08-18T13:36:33.082Z,3095
2017-08-18T13:37:43.052Z,3120
2017-08-18T13:38:53.027Z,3015
2017-08-18T13:40:03.009Z,3000
2017-08-18T13:41:13.292Z,2765
2017-08-18T13:42:23.576Z,1570
2017-08-18T13:43:33.873Z,690
2017-08-18T13:44:43.843Z,610
2017-08-18T13:45:53.819Z,815
2017-08-18T13:47:04.103Z,1085
2017-08-18T13:48:14.387Z,940
2017-08-18T13:49:24.673Z,920
2017-08-18T13:50:34.328Z,1270
2017-08-18T13:51:44.613Z,995
2017-08-18T13:52:54.273Z,840
2017-08-18T13:54:03.923Z,925
2017-08-18T13:55:13.939Z,3120
2017-08-18T13:56:24.224Z,2875
2017-08-18T13:57:33.874Z,2990
2017-08-18T13:58:43.908Z,2635
2017-08-18T13:59:53.561Z,3040
2017-08-18T14:01:03.531Z,2995
2017-08-18T14:02:13.503Z,2940
2017-08-18T14:03:23.160Z,645
2017-08-18T14:04:33.444Z,540
2017-08-18T14:05:43.413Z,560
2017-08-18T14:06:53.696Z,635
2017-08-18T14:08:03.665Z,675
2017-08-18T14:09:13.631Z,545
2017-08-18T14:10:23.603Z,425
2017-08-18T14:11:33.898Z,370
2017-08-18T14:12:43.873Z,350
2017-08-18T14:13:54.159Z,345
2017-08-18T14:15:04.443Z,520
2017-08-18T14:16:14.406Z,2960
2017-08-18T14:17:24.373Z,820
2017-08-18T14:18:34.020Z,710
2017-08-18T14:19:43.672Z,525
2017-08-18T14:20:53.964Z,470
2017-08-18T14:22:03.616Z,440
2017-08-18T14:23:13.582Z,415
2017-08-18T14:24:23.549Z,420
2017-08-18T14:25:33.829Z,410
2017-08-18T14:26:44.107Z,375
2017-08-18T14:27:54.384Z,385
2017-08-18T14:29:04.672Z,370
2017-08-18T14:30:14.951Z,385
2017-08-18T14:31:24.918Z,370
2017-08-18T14:32:35.198Z,265
2017-08-18T14:33:45.478Z,195
2017-08-18T14:34:55.126Z,160
2017-08-18T14:36:05.087Z,155
2017-08-18T14:37:15.379Z,160
2017-08-18T14:38:25.660Z,170
2017-08-18T14:39:35.624Z,175
2017-08-18T14:40:45.902Z,165
2017-08-18T14:41:55.867Z,140
2017-08-18T14:43:05.521Z,110
2017-08-18T14:44:15.486Z,95
2017-08-18T14:45:25.766Z,90
2017-08-18T14:46:35.750Z,95
2017-08-18T14:47:46.030Z,110
2017-08-18T14:48:56.313Z,135
2017-08-18T14:50:06.603Z,190
2017-08-18T14:51:16.880Z,250
2017-08-18T14:52:26.532Z,270
2017-08-18T14:53:36.178Z,280
2017-08-18T14:54:46.462Z,315
2017-08-18T14:55:56.421Z,345
2017-08-18T14:57:06.390Z,365
2017-08-18T14:58:16.046Z,360
2017-08-18T14:59:26.323Z,320
2017-08-18T15:00:36.603Z,290
2017-08-18T15:01:46.879Z,250
2017-08-18T15:02:56.844Z,215
2017-08-18T15:04:07.122Z,200
2017-08-18T15:05:16.769Z,200
2017-08-18T15:06:27.045Z,210
2017-08-18T15:07:37.006Z,225
2017-08-18T15:08:46.975Z,240
2017-08-18T15:09:57.256Z,235
2017-08-18T15:11:07.217Z,250
2017-08-18T15:12:16.865Z,260
2017-08-18T15:13:26.524Z,265
2017-08-18T15:14:36.802Z,285
2017-08-18T15:15:47.081Z,310
2017-08-18T15:16:57.051Z,300
2017-08-18T15:18:07.021Z,290
2017-08-18T15:19:17.303Z,290
2017-08-18T15:20:26.952Z,295
2017-08-18T15:21:37.234Z,295
2017-08-18T15:22:47.199Z,290
2017-08-18T15:23:57.477Z,275
2017-08-18T15:25:07.441Z,270
2017-08-18T15:26:17.410Z,255
2017-08-18T15:27:27.062Z,240
2017-08-18T15:28:37.023Z,220
2017-08-18T15:29:46.354Z,210
2017-08-18T15:30:56.313Z,210
2017-08-18T15:32:06.591Z,235
2017-08-18T15:33:16.555Z,310
2017-08-18T15:34:26.836Z,655
2017-08-18T15:35:36.811Z,545
2017-08-18T15:36:46.773Z,805
2017-08-18T15:37:56.740Z,715
2017-08-18T15:39:07.016Z,575
2017-08-18T15:40:16.982Z,505
2017-08-18T15:41:26.950Z,535
2017-08-18T15:42:36.923Z,560
2017-08-18T15:43:47.203Z,550
2017-08-18T15:44:57.498Z,550
2017-08-18T15:46:07.782Z,580
2017-08-18T15:47:18.055Z,550
2017-08-18T15:48:27.396Z,475
2017-08-18T15:49:37.674Z,380
2017-08-18T15:50:49.323Z,340
2017-08-18T15:51:59.287Z,295
2017-08-18T15:53:09.249Z,265
2017-08-18T15:54:19.534Z,220
2017-08-18T15:55:29.810Z,185
2017-08-18T15:56:39.467Z,165
2017-08-18T15:57:49.429Z,155
2017-08-18T15:58:59.122Z,150
2017-08-18T16:00:09.406Z,145
2017-08-18T16:01:19.696Z,145
2017-08-18T16:02:29.654Z,190
2017-08-18T16:03:38.987Z,270
2017-08-18T16:04:49.268Z,380
2017-08-18T16:05:58.917Z,385
2017-08-18T16:07:08.882Z,345
2017-08-18T16:08:19.175Z,320
2017-08-18T16:09:29.146Z,335
2017-08-18T16:10:39.427Z,355
2017-08-18T16:11:49.395Z,350
2017-08-18T16:12:59.360Z,345
2017-08-18T16:14:09.322Z,355
2017-08-18T16:15:19.605Z,365
2017-08-18T16:16:29.889Z,370
2017-08-18T16:17:39.538Z,375
2017-08-18T16:18:49.831Z,360
2017-08-18T16:20:00.111Z,350
2017-08-18T16:21:10.399Z,345
2017-08-18T16:22:20.674Z,350
2017-08-18T16:23:30.950Z,325
2017-08-18T16:24:40.602Z,300